KCNY/CNY METAR and TAF weather

Enter ICAO airport designator
Station Type Date Time Source
KCNY METAR 2021/10/20 06:53 UTC NOAA

KCNY 200653Z AUTO 00000KT 10SM CLR 03/01 A3021 RMK AO2 SLP223 T00330011 402060028


Station Type Date Time Source
KCNY Decoded METAR 2021/10/20 06:53 UTC NOAA

MOAB CANYONLANDS FIELD, UT, United States (KCNY) 38-46N 109-45W 1390M
Oct 20, 2021 - 02:53 AM EDT / 2021.10.20 0653 UTC
Wind: Calm:0
Visibility: 10 mile(s):0
Sky conditions: clear
Temperature: 37.9 F (3.3 C)
Dew Point: 34.0 F (1.1 C)
Relative Humidity: 85%
Pressure (altimeter): 30.21 in. Hg (1023 hPa)
ob: KCNY 200653Z AUTO 00000KT 10SM CLR 03/01 A3021 RMK AO2 SLP223 T00330011 402060028
cycle: 7

Station Type Date Time Source
KCNY TAF 2021/10/20 06:30 UTC NOAA

TAF KCNY 200527Z 2006/2106 VRB04KT P6SM SKC
FM201900 33008KT P6SM SKC

Example: see airport list